createdAt,value
2018-04-22T00:00:55.106Z,84.95
2018-04-22T00:03:26.378Z,82.43
2018-04-22T00:05:57.969Z,78.18
2018-04-22T00:08:29.027Z,87.47
2018-04-22T00:11:00.845Z,78.12
2018-04-22T00:13:33.981Z,78.20
2018-04-22T00:16:05.835Z,80.50
2018-04-22T00:18:37.745Z,78.75
2018-04-22T00:21:09.159Z,80.32
2018-04-22T00:23:40.252Z,80.72
2018-04-22T00:26:11.383Z,83.97
2018-04-22T00:28:42.582Z,91.22
2018-04-22T00:31:14.192Z,95.53
2018-04-22T00:33:45.590Z,86.07
2018-04-22T00:36:16.858Z,81.22
2018-04-22T00:38:47.975Z,84.45
2018-04-22T00:41:19.217Z,83.53
2018-04-22T00:43:50.449Z,80.47
2018-04-22T00:46:21.720Z,89.65
2018-04-22T00:48:52.989Z,90.07
2018-04-22T00:51:24.638Z,91.40
2018-04-22T00:54:04.450Z,92.20
2018-04-22T00:56:35.913Z,80.90
2018-04-22T00:59:07.117Z,90.95
2018-04-22T01:01:38.285Z,78.20
2018-04-22T01:04:09.372Z,85.50
2018-04-22T01:06:40.995Z,80.90
2018-04-22T01:09:12.205Z,85.90
2018-04-22T01:11:43.292Z,87.15
2018-04-22T01:14:14.471Z,79.15
2018-04-22T01:16:45.669Z,94.47
2018-04-22T01:19:17.014Z,94.65
2018-04-22T01:21:48.540Z,83.97
2018-04-22T01:24:19.777Z,77.72
2018-04-22T01:30:08.925Z,77.87
2018-04-22T01:32:40.205Z,80.12
2018-04-22T01:35:11.540Z,79.18
2018-04-22T01:37:42.672Z,85.70
2018-04-22T01:40:15.963Z,91.18
2018-04-22T01:42:47.152Z,85.57
2018-04-22T01:45:18.794Z,79.05
2018-04-22T01:47:49.989Z,81.63
2018-04-22T01:50:21.307Z,84.70
2018-04-22T01:52:52.506Z,81.65
2018-04-22T01:55:23.739Z,84.55
2018-04-22T01:57:55.444Z,80.12
2018-04-22T02:00:26.879Z,78.65
2018-04-22T02:02:58.023Z,83.50
2018-04-22T02:05:29.331Z,86.15
2018-04-22T02:08:03.225Z,73.12
2018-04-22T02:10:34.427Z,82.82
2018-04-22T02:13:05.789Z,90.25
2018-04-22T02:15:37.365Z,92.65
2018-04-22T02:18:08.542Z,83.90
2018-04-22T02:20:39.708Z,87.88
2018-04-22T02:23:10.844Z,79.97
2018-04-22T02:25:42.003Z,77.20
2018-04-22T02:28:13.772Z,79.65
2018-04-22T02:30:44.945Z,91.55
2018-04-22T02:33:16.161Z,86.28
2018-04-22T02:35:47.349Z,83.15
2018-04-22T02:38:18.604Z,77.37
2018-04-22T02:40:51.027Z,78.70
2018-04-22T02:43:22.251Z,80.90
2018-04-22T02:45:53.492Z,84.93
2018-04-22T02:48:24.630Z,82.12
2018-04-22T02:50:56.136Z,77.45
2018-04-22T02:53:27.389Z,76.03
2018-04-22T02:55:59.623Z,82.90
2018-04-22T02:58:30.890Z,82.50
2018-04-22T03:01:02.077Z,82.68
2018-04-22T03:03:33.170Z,78.00
2018-04-22T03:06:04.947Z,82.32
2018-04-22T03:08:37.128Z,80.07
2018-04-22T03:11:08.613Z,83.85
2018-04-22T03:13:39.829Z,80.80
2018-04-22T03:16:10.895Z,75.60
2018-04-22T03:18:41.948Z,84.97
2018-04-22T03:21:13.316Z,81.80
2018-04-22T03:23:44.663Z,87.05
2018-04-22T03:26:16.422Z,75.25
2018-04-22T03:28:47.617Z,83.05
2018-04-22T03:31:18.945Z,84.72
2018-04-22T03:33:51.210Z,86.15
2018-04-22T03:36:22.956Z,101.35
2018-04-22T03:38:53.979Z,131.37
2018-04-22T03:41:25.077Z,86.43
2018-04-22T03:43:56.756Z,82.37
2018-04-22T03:46:28.029Z,75.43
2018-04-22T03:48:59.150Z,78.12
2018-04-22T03:51:30.457Z,82.30
2018-04-22T03:54:01.745Z,81.78
2018-04-22T03:56:33.105Z,89.85
2018-04-22T03:59:21.520Z,97.37
2018-04-22T04:01:53.218Z,87.85
2018-04-22T04:21:40.297Z,83.40
2018-04-22T04:24:24.235Z,99.03
2018-04-22T04:30:12.288Z,92.55
2018-04-22T04:32:54.513Z,98.93
2018-04-22T04:38:41.889Z,86.63
2018-04-22T04:42:17.664Z,75.95
2018-04-22T04:44:48.728Z,76.00
2018-04-22T04:47:19.384Z,83.57
2018-04-22T04:49:50.027Z,76.32
2018-04-22T04:52:20.781Z,80.18
2018-04-22T04:54:51.660Z,78.15
2018-04-22T04:57:22.391Z,80.55
2018-04-22T04:59:53.491Z,81.97
2018-04-22T05:02:24.076Z,86.35
2018-04-22T05:04:54.794Z,82.75
2018-04-22T05:07:25.401Z,79.87
2018-04-22T05:09:56.105Z,84.32
2018-04-22T05:12:26.809Z,79.95
2018-04-22T05:14:57.601Z,88.43
2018-04-22T05:17:28.231Z,86.10
2018-04-22T05:19:58.924Z,81.32
2018-04-22T05:22:29.641Z,85.70
2018-04-22T05:25:00.272Z,80.78
2018-04-22T05:27:30.952Z,71.22
2018-04-22T05:30:01.580Z,80.03
2018-04-22T05:32:32.180Z,81.45
2018-04-22T05:35:03.403Z,88.85
2018-04-22T05:37:34.068Z,86.95
2018-04-22T05:40:05.176Z,86.60
2018-04-22T05:42:35.744Z,87.45
2018-04-22T05:45:06.637Z,87.40
2018-04-22T05:47:37.311Z,91.22
2018-04-22T05:50:08.092Z,83.53
2018-04-22T05:52:38.976Z,95.53
2018-04-22T05:55:09.973Z,91.45
2018-04-22T05:57:40.651Z,88.20
2018-04-22T06:00:11.340Z,90.65
2018-04-22T06:02:42.066Z,90.12
2018-04-22T06:05:12.696Z,83.10
2018-04-22T06:07:43.239Z,87.37
2018-04-22T06:10:13.881Z,86.47
2018-04-22T06:12:44.743Z,88.05
2018-04-22T06:15:15.643Z,94.20
2018-04-22T06:17:46.409Z,87.88
2018-04-22T06:20:17.215Z,91.28
2018-04-22T06:22:47.961Z,104.95
2018-04-22T06:25:20.547Z,98.62
2018-04-22T06:27:51.283Z,97.40
2018-04-22T06:30:22.320Z,96.70
2018-04-22T06:32:52.905Z,88.18
2018-04-22T06:35:24.004Z,95.07
2018-04-22T06:37:54.742Z,97.15
2018-04-22T06:40:25.580Z,87.20
2018-04-22T06:42:56.351Z,86.05
2018-04-22T06:45:27.577Z,102.62
2018-04-22T06:47:58.480Z,92.50
2018-04-22T06:50:29.884Z,102.57
2018-04-22T06:53:01.006Z,99.47
2018-04-22T06:55:31.883Z,103.93
2018-04-22T06:58:02.463Z,96.47
2018-04-22T07:00:35.503Z,97.50
2018-04-22T07:03:06.562Z,102.18
2018-04-22T07:05:37.132Z,113.82
2018-04-22T07:08:08.164Z,107.20
2018-04-22T07:10:39.014Z,107.97
2018-04-22T07:13:09.718Z,93.72
2018-04-22T07:15:40.681Z,109.53
2018-04-22T07:18:11.270Z,95.68
2018-04-22T07:20:46.123Z,108.80
2018-04-22T07:23:16.847Z,94.72
2018-04-22T07:25:47.764Z,100.10
2018-04-22T07:28:18.500Z,108.32
2018-04-22T07:30:49.336Z,104.03
2018-04-22T07:33:20.092Z,103.00
2018-04-22T07:35:50.707Z,113.00
2018-04-22T07:38:21.429Z,106.07
2018-04-22T07:40:52.181Z,109.00
2018-04-22T07:43:22.885Z,113.47
2018-04-22T07:45:53.832Z,113.53
2018-04-22T07:48:24.588Z,105.32
2018-04-22T07:50:55.180Z,107.63
2018-04-22T07:53:26.062Z,109.07
2018-04-22T07:55:56.744Z,99.00
2018-04-22T07:58:27.410Z,107.75
2018-04-22T08:00:58.442Z,110.78
2018-04-22T08:03:29.156Z,114.78
2018-04-22T08:05:59.849Z,108.12
2018-04-22T08:08:30.698Z,103.70
2018-04-22T08:11:01.692Z,115.50
2018-04-22T08:13:32.395Z,114.07
2018-04-22T08:16:03.109Z,103.68
2018-04-22T08:18:33.883Z,115.95
2018-04-22T08:21:04.551Z,108.32
2018-04-22T08:23:35.095Z,115.22
2018-04-22T08:26:05.833Z,112.45
2018-04-22T08:28:36.420Z,109.35
2018-04-22T08:31:07.023Z,113.22
2018-04-22T08:33:37.553Z,111.72
2018-04-22T08:36:08.616Z,111.62
2018-04-22T08:38:39.642Z,100.22
2018-04-22T08:41:10.510Z,103.07
2018-04-22T08:43:41.115Z,105.70
2018-04-22T08:46:12.134Z,112.15
2018-04-22T08:48:43.043Z,108.28
2018-04-22T08:51:15.764Z,118.00
2018-04-22T08:53:54.416Z,120.45
2018-04-22T08:56:26.541Z,111.78
2018-04-22T08:58:58.197Z,117.18
2018-04-22T09:01:31.370Z,107.20
2018-04-22T09:04:02.800Z,104.68
2018-04-22T09:06:34.722Z,101.57
2018-04-22T09:09:12.841Z,96.72
2018-04-22T09:11:44.148Z,102.43
2018-04-22T09:14:18.639Z,111.32
2018-04-22T09:16:50.370Z,106.35
2018-04-22T09:19:21.431Z,100.65
2018-04-22T09:21:52.985Z,102.10
2018-04-22T09:24:24.339Z,98.20
2018-04-22T09:26:56.037Z,90.30
2018-04-22T09:29:27.419Z,100.25
2018-04-22T09:31:58.861Z,98.57
2018-04-22T09:34:30.429Z,101.10
2018-04-22T09:37:02.008Z,104.25
2018-04-22T09:39:33.022Z,110.03
2018-04-22T09:42:07.603Z,101.80
2018-04-22T09:44:38.731Z,105.05
2018-04-22T09:47:10.158Z,113.18
2018-04-22T09:49:41.536Z,107.80
2018-04-22T09:52:12.637Z,115.88
2018-04-22T09:54:43.941Z,105.20
2018-04-22T09:57:15.188Z,100.22
2018-04-22T09:59:46.768Z,94.07
2018-04-22T10:02:18.923Z,101.47
2018-04-22T10:04:50.586Z,96.47
2018-04-22T10:07:21.982Z,93.18
2018-04-22T10:09:53.737Z,99.78
2018-04-22T10:12:25.411Z,100.47
2018-04-22T10:14:56.885Z,101.40
2018-04-22T10:17:28.105Z,100.55
2018-04-22T10:19:59.628Z,99.80
2018-04-22T10:22:33.714Z,109.30
2018-04-22T10:25:05.035Z,99.45
2018-04-22T10:27:36.676Z,100.43
2018-04-22T10:30:11.158Z,102.87
2018-04-22T10:32:45.263Z,100.65
2018-04-22T10:35:18.048Z,108.57
2018-04-22T10:37:51.029Z,100.53
2018-04-22T10:40:22.520Z,93.60
2018-04-22T10:42:53.652Z,103.55
2018-04-22T10:45:28.299Z,106.10
2018-04-22T10:47:59.506Z,112.90
2018-04-22T10:50:31.546Z,97.22
2018-04-22T10:53:03.910Z,96.37
2018-04-22T10:55:34.956Z,93.30
2018-04-22T10:58:06.469Z,97.37
2018-04-22T11:00:37.871Z,95.45
2018-04-22T11:03:09.293Z,93.05
2018-04-22T11:05:40.425Z,99.72
2018-04-22T11:08:11.861Z,109.47
2018-04-22T11:10:44.304Z,97.88
2018-04-22T11:13:17.034Z,101.87
2018-04-22T11:15:49.078Z,95.70
2018-04-22T11:18:19.878Z,105.00
2018-04-22T11:20:50.632Z,99.60
2018-04-22T11:23:21.371Z,98.53
2018-04-22T11:25:52.075Z,103.75
2018-04-22T11:28:23.598Z,109.32
2018-04-22T11:30:54.482Z,104.85
2018-04-22T11:33:25.152Z,106.37
2018-04-22T11:35:55.791Z,96.70
2018-04-22T11:38:26.574Z,100.07
2018-04-22T11:40:57.151Z,96.97
2018-04-22T11:43:28.625Z,93.40
2018-04-22T11:45:59.228Z,101.53
2018-04-22T11:48:29.865Z,100.43
2018-04-22T11:51:00.580Z,98.37
2018-04-22T11:53:31.299Z,103.45
2018-04-22T11:56:02.056Z,93.43
2018-04-22T11:58:32.887Z,100.40
2018-04-22T12:01:03.548Z,104.60
2018-04-22T12:03:34.418Z,93.45
2018-04-22T12:06:05.246Z,88.20
2018-04-22T12:08:36.411Z,96.03
2018-04-22T12:11:07.044Z,90.45
2018-04-22T12:13:38.139Z,106.28
2018-04-22T12:16:08.840Z,89.13
2018-04-22T12:18:39.494Z,94.50
2018-04-22T12:21:10.008Z,91.70
2018-04-22T12:23:40.736Z,93.65
2018-04-22T12:26:12.004Z,97.47
2018-04-22T12:28:42.678Z,93.07
2018-04-22T12:31:13.588Z,97.45
2018-04-22T12:33:44.169Z,90.82
2018-04-22T12:36:14.871Z,98.72
2018-04-22T12:38:45.502Z,95.35
2018-04-22T12:41:16.155Z,98.93
2018-04-22T12:43:46.941Z,106.05
2018-04-22T12:46:17.593Z,99.97
2018-04-22T12:48:48.257Z,96.60
2018-04-22T12:51:19.116Z,97.22
2018-04-22T12:53:49.735Z,100.12
2018-04-22T12:56:20.515Z,96.20
2018-04-22T12:58:51.180Z,100.60
2018-04-22T13:01:22.396Z,101.45
2018-04-22T13:03:53.072Z,96.85
2018-04-22T13:06:23.656Z,103.28
2018-04-22T13:08:54.332Z,99.82
2018-04-22T13:11:24.997Z,102.40
2018-04-22T13:13:55.669Z,95.68
2018-04-22T13:16:26.328Z,101.82
2018-04-22T13:18:56.974Z,95.65
2018-04-22T13:21:27.956Z,96.50
2018-04-22T13:23:58.679Z,99.35
2018-04-22T13:26:29.384Z,95.75
2018-04-22T13:29:01.239Z,102.38
2018-04-22T13:31:31.889Z,100.53
2018-04-22T13:34:02.534Z,101.32
2018-04-22T13:36:33.280Z,108.87
2018-04-22T13:39:04.487Z,103.22
2018-04-22T13:41:35.327Z,108.87
2018-04-22T13:44:05.992Z,91.60
2018-04-22T13:46:36.524Z,99.22
2018-04-22T13:49:07.210Z,101.40
2018-04-22T13:51:37.864Z,99.30
2018-04-22T13:54:08.479Z,103.20
2018-04-22T13:56:39.596Z,104.85
2018-04-22T13:59:10.678Z,99.07
2018-04-22T14:01:41.880Z,93.60
2018-04-22T14:04:13.028Z,101.82
2018-04-22T14:06:44.108Z,102.10
2018-04-22T14:09:15.233Z,102.28
2018-04-22T14:11:46.368Z,106.40
2018-04-22T14:14:17.592Z,113.62
2018-04-22T14:16:49.518Z,99.43
2018-04-22T14:19:20.632Z,97.05
2018-04-22T14:21:51.628Z,96.75
2018-04-22T14:24:22.981Z,104.78
2018-04-22T14:26:54.116Z,106.20
2018-04-22T14:29:25.232Z,101.82
2018-04-22T14:31:56.446Z,88.70
2018-04-22T14:34:27.742Z,100.72
2018-04-22T14:36:59.056Z,98.37
2018-04-22T14:39:30.389Z,95.43
2018-04-22T17:59:56.501Z,105.68
2018-04-22T18:02:27.355Z,107.40
2018-04-22T18:04:58.033Z,110.37
2018-04-22T18:07:28.759Z,114.97
2018-04-22T18:09:59.576Z,111.40
2018-04-22T18:12:31.505Z,107.90
2018-04-22T18:15:02.225Z,113.82
2018-04-22T18:17:33.377Z,105.50
2018-04-22T18:20:04.077Z,104.95
2018-04-22T18:22:34.796Z,145.98
2018-04-22T18:25:05.673Z,137.75
2018-04-22T18:27:36.320Z,105.28
2018-04-22T18:30:07.097Z,110.78
2018-04-22T18:32:37.780Z,101.75
2018-04-22T18:35:08.532Z,106.57
2018-04-22T18:37:39.137Z,100.95
2018-04-22T18:40:10.006Z,107.93
2018-04-22T18:42:41.016Z,98.80
2018-04-22T18:45:11.692Z,95.68
2018-04-22T18:47:42.651Z,98.10
2018-04-22T18:50:14.672Z,89.35
2018-04-22T18:55:32.898Z,91.87
2018-04-22T18:58:03.991Z,98.40
2018-04-22T19:00:38.983Z,100.78
2018-04-22T19:03:09.910Z,94.87
2018-04-22T19:05:40.997Z,107.07
2018-04-22T19:08:12.588Z,98.43
2018-04-22T19:10:44.061Z,98.00
2018-04-22T19:19:24.004Z,96.97
2018-04-22T19:28:32.739Z,106.70
2018-04-22T19:31:03.865Z,101.87
2018-04-22T19:33:34.773Z,102.30
2018-04-22T19:36:05.468Z,95.72
2018-04-22T19:38:36.787Z,93.80
2018-04-22T19:41:08.236Z,106.57
2018-04-22T19:43:39.173Z,106.68
2018-04-22T19:46:10.473Z,102.20
2018-04-22T19:48:51.050Z,106.20
2018-04-22T19:51:21.849Z,138.45
2018-04-22T19:53:52.890Z,166.88
2018-04-22T19:56:23.881Z,118.55
2018-04-22T19:58:54.611Z,105.20
2018-04-22T20:01:26.548Z,105.35
2018-04-22T20:03:57.129Z,98.82
2018-04-22T20:06:27.801Z,103.80
2018-04-22T20:08:58.736Z,98.95
2018-04-22T20:11:29.820Z,99.60
2018-04-22T20:14:02.080Z,102.15
2018-04-22T20:16:33.535Z,112.00
2018-04-22T20:19:05.552Z,97.88
2018-04-22T20:21:36.631Z,98.43
2018-04-22T20:24:08.589Z,93.47
2018-04-22T20:26:40.541Z,99.20
2018-04-22T20:29:12.207Z,101.03
2018-04-22T20:31:51.758Z,98.72
2018-04-22T20:34:22.640Z,99.62
2018-04-22T20:36:54.096Z,96.25
2018-04-22T20:39:24.893Z,99.07
2018-04-22T20:41:55.724Z,99.10
2018-04-22T20:44:26.610Z,98.20
2018-04-22T20:46:59.757Z,103.75
2018-04-22T20:49:32.793Z,90.18
2018-04-22T20:52:05.359Z,92.78
2018-04-22T20:54:37.057Z,98.68
2018-04-22T20:57:07.941Z,100.55
2018-04-22T20:59:40.921Z,95.87
2018-04-22T21:02:11.720Z,98.57
2018-04-22T21:04:42.458Z,95.18
2018-04-22T21:07:13.978Z,98.45
2018-04-22T21:09:45.273Z,98.57
2018-04-22T21:12:16.746Z,96.45
2018-04-22T21:14:48.059Z,96.65
2018-04-22T21:17:20.323Z,100.30
2018-04-22T21:19:51.430Z,97.93
2018-04-22T21:22:22.496Z,93.28
2018-04-22T21:24:53.576Z,100.20
2018-04-22T21:27:24.802Z,95.22
2018-04-22T21:29:55.895Z,90.75
2018-04-22T21:32:27.103Z,90.47
2018-04-22T21:34:58.607Z,86.97
2018-04-22T21:37:29.825Z,92.10
2018-04-22T21:40:01.639Z,92.65
2018-04-22T21:42:33.623Z,98.55
2018-04-22T21:45:05.791Z,90.93
2018-04-22T21:47:37.068Z,98.97
2018-04-22T21:50:08.236Z,95.75
2018-04-22T21:52:39.340Z,86.95
2018-04-22T21:55:10.903Z,92.95
2018-04-22T21:57:42.442Z,93.87
2018-04-22T22:00:13.606Z,97.37
2018-04-22T22:02:44.869Z,99.60
2018-04-22T22:05:16.217Z,94.75
2018-04-22T22:07:47.161Z,98.28
2018-04-22T22:10:18.303Z,91.40
2018-04-22T22:12:49.554Z,96.18
2018-04-22T22:15:21.249Z,102.45
2018-04-22T22:17:52.357Z,96.15
2018-04-22T22:20:23.734Z,102.40
2018-04-22T22:22:55.864Z,97.82
2018-04-22T22:25:27.170Z,100.97
2018-04-22T22:27:58.812Z,94.82
2018-04-22T22:30:29.893Z,92.20
2018-04-22T22:33:13.035Z,104.00
2018-04-22T22:35:43.693Z,95.80
2018-04-22T22:38:14.468Z,101.45
2018-04-22T22:40:45.192Z,100.55
2018-04-22T22:43:15.800Z,97.12
2018-04-22T22:45:46.520Z,88.47
2018-04-22T22:48:17.100Z,84.30
2018-04-22T22:50:47.999Z,96.87
2018-04-22T22:53:18.669Z,86.63
2018-04-22T22:55:49.320Z,83.47
2018-04-22T22:58:20.000Z,94.03
2018-04-22T23:00:50.779Z,93.60
2018-04-22T23:03:21.561Z,91.53
2018-04-22T23:05:52.221Z,88.05
2018-04-22T23:08:23.064Z,91.90
2018-04-22T23:10:53.949Z,92.35
2018-04-22T23:13:24.845Z,96.80
2018-04-22T23:15:55.582Z,98.53
2018-04-22T23:18:26.423Z,95.62
2018-04-22T23:20:57.259Z,99.78
2018-04-22T23:23:27.985Z,101.57
2018-04-22T23:25:58.707Z,91.05
2018-04-22T23:28:29.922Z,96.03
2018-04-22T23:31:00.684Z,94.85
2018-04-22T23:33:31.400Z,98.60
2018-04-22T23:36:02.280Z,96.75
2018-04-22T23:38:33.059Z,99.62
2018-04-22T23:41:04.504Z,104.68
2018-04-22T23:43:35.216Z,95.15
2018-04-22T23:46:05.868Z,100.82
2018-04-22T23:48:36.531Z,98.22
2018-04-22T23:51:07.278Z,104.93
2018-04-22T23:53:38.365Z,104.65
2018-04-22T23:56:09.155Z,98.05
2018-04-22T23:58:39.936Z,92.82
